sensor_id;sensor_type;location;lat;lon;timestamp;temperature;humidity
68746;SHT31;66104;45.456;11.064;2023-06-14T00:02:13;23.00;57.32
68746;SHT31;66104;45.456;11.064;2023-06-14T00:04:50;22.98;57.62
68746;SHT31;66104;45.456;11.064;2023-06-14T00:07:35;23.02;57.59
68746;SHT31;66104;45.456;11.064;2023-06-14T00:10:13;23.04;57.68
68746;SHT31;66104;45.456;11.064;2023-06-14T00:12:52;23.04;57.57
68746;SHT31;66104;45.456;11.064;2023-06-14T00:15:30;23.01;57.65
68746;SHT31;66104;45.456;11.064;2023-06-14T00:18:08;22.98;57.73
68746;SHT31;66104;45.456;11.064;2023-06-14T00:20:45;22.96;57.59
68746;SHT31;66104;45.456;11.064;2023-06-14T00:23:23;22.91;57.48
68746;SHT31;66104;45.456;11.064;2023-06-14T00:25:59;22.80;57.47
68746;SHT31;66104;45.456;11.064;2023-06-14T00:28:36;22.72;58.09
68746;SHT31;66104;45.456;11.064;2023-06-14T00:31:14;22.73;58.27
68746;SHT31;66104;45.456;11.064;2023-06-14T00:33:52;22.73;58.56
68746;SHT31;66104;45.456;11.064;2023-06-14T00:36:29;22.77;58.45
68746;SHT31;66104;45.456;11.064;2023-06-14T00:39:07;22.78;58.20
68746;SHT31;66104;45.456;11.064;2023-06-14T00:41:43;22.77;58.29
68746;SHT31;66104;45.456;11.064;2023-06-14T00:44:21;22.75;58.20
68746;SHT31;66104;45.456;11.064;2023-06-14T00:46:58;22.76;58.19
68746;SHT31;66104;45.456;11.064;2023-06-14T00:49:36;22.76;58.31
68746;SHT31;66104;45.456;11.064;2023-06-14T00:52:14;22.74;58.25
68746;SHT31;66104;45.456;11.064;2023-06-14T00:54:54;22.73;58.19
68746;SHT31;66104;45.456;11.064;2023-06-14T00:57:31;22.68;58.25
68746;SHT31;66104;45.456;11.064;2023-06-14T01:00:12;22.62;58.46
68746;SHT31;66104;45.456;11.064;2023-06-14T01:02:55;22.63;58.51
68746;SHT31;66104;45.456;11.064;2023-06-14T01:05:36;22.60;58.49
68746;SHT31;66104;45.456;11.064;2023-06-14T01:08:21;22.61;58.47
68746;SHT31;66104;45.456;11.064;2023-06-14T01:11:15;22.63;58.15
68746;SHT31;66104;45.456;11.064;2023-06-14T01:14:01;22.57;58.16
68746;SHT31;66104;45.456;11.064;2023-06-14T01:16:41;22.49;58.18
68746;SHT31;66104;45.456;11.064;2023-06-14T01:19:22;22.46;58.59
68746;SHT31;66104;45.456;11.064;2023-06-14T01:22:01;22.44;58.22
68746;SHT31;66104;45.456;11.064;2023-06-14T01:24:40;22.45;58.74
68746;SHT31;66104;45.456;11.064;2023-06-14T01:27:21;22.51;58.29
68746;SHT31;66104;45.456;11.064;2023-06-14T01:30:01;22.55;58.76
68746;SHT31;66104;45.456;11.064;2023-06-14T01:32:46;22.58;59.01
68746;SHT31;66104;45.456;11.064;2023-06-14T01:35:24;22.52;58.94
68746;SHT31;66104;45.456;11.064;2023-06-14T01:38:03;22.49;59.11
68746;SHT31;66104;45.456;11.064;2023-06-14T01:40:44;22.53;59.13
68746;SHT31;66104;45.456;11.064;2023-06-14T01:43:26;22.57;58.95
68746;SHT31;66104;45.456;11.064;2023-06-14T01:46:07;22.54;58.86
68746;SHT31;66104;45.456;11.064;2023-06-14T01:48:48;22.51;58.79
68746;SHT31;66104;45.456;11.064;2023-06-14T01:51:27;22.46;59.08
68746;SHT31;66104;45.456;11.064;2023-06-14T01:54:06;22.43;59.00
68746;SHT31;66104;45.456;11.064;2023-06-14T01:56:44;22.41;59.28
68746;SHT31;66104;45.456;11.064;2023-06-14T01:59:22;22.45;59.15
68746;SHT31;66104;45.456;11.064;2023-06-14T02:02:02;22.44;58.90
68746;SHT31;66104;45.456;11.064;2023-06-14T02:04:42;22.38;59.16
68746;SHT31;66104;45.456;11.064;2023-06-14T02:07:22;22.41;59.15
68746;SHT31;66104;45.456;11.064;2023-06-14T02:10:03;22.40;59.09
68746;SHT31;66104;45.456;11.064;2023-06-14T02:12:44;22.36;58.94
68746;SHT31;66104;45.456;11.064;2023-06-14T02:15:23;22.32;59.18
68746;SHT31;66104;45.456;11.064;2023-06-14T02:18:04;22.30;58.97
68746;SHT31;66104;45.456;11.064;2023-06-14T02:22:12;22.25;59.26
68746;SHT31;66104;45.456;11.064;2023-06-14T02:24:51;22.28;59.12
68746;SHT31;66104;45.456;11.064;2023-06-14T02:27:30;22.23;58.94
68746;SHT31;66104;45.456;11.064;2023-06-14T02:30:09;22.17;59.13
68746;SHT31;66104;45.456;11.064;2023-06-14T02:32:49;22.11;59.39
68746;SHT31;66104;45.456;11.064;2023-06-14T02:35:25;22.08;59.36
68746;SHT31;66104;45.456;11.064;2023-06-14T02:38:03;22.03;59.36
68746;SHT31;66104;45.456;11.064;2023-06-14T02:40:42;21.87;59.31
68746;SHT31;66104;45.456;11.064;2023-06-14T02:43:21;21.77;59.71
68746;SHT31;66104;45.456;11.064;2023-06-14T02:45:58;21.71;59.68
68746;SHT31;66104;45.456;11.064;2023-06-14T02:48:35;21.66;59.78
68746;SHT31;66104;45.456;11.064;2023-06-14T02:51:12;21.57;59.85
68746;SHT31;66104;45.456;11.064;2023-06-14T02:53:51;21.51;60.20
68746;SHT31;66104;45.456;11.064;2023-06-14T02:56:28;21.50;60.51
68746;SHT31;66104;45.456;11.064;2023-06-14T02:59:06;21.52;60.71
68746;SHT31;66104;45.456;11.064;2023-06-14T03:01:44;21.48;60.83
68746;SHT31;66104;45.456;11.064;2023-06-14T03:04:21;21.47;60.99
68746;SHT31;66104;45.456;11.064;2023-06-14T03:06:58;21.46;61.02
68746;SHT31;66104;45.456;11.064;2023-06-14T03:09:40;21.43;60.79
68746;SHT31;66104;45.456;11.064;2023-06-14T03:12:19;21.38;60.96
68746;SHT31;66104;45.456;11.064;2023-06-14T03:14:56;21.36;60.96
68746;SHT31;66104;45.456;11.064;2023-06-14T03:17:38;21.33;60.82
68746;SHT31;66104;45.456;11.064;2023-06-14T03:20:18;21.27;60.51
68746;SHT31;66104;45.456;11.064;2023-06-14T03:23:01;21.16;60.62
68746;SHT31;66104;45.456;11.064;2023-06-14T03:25:39;21.08;60.70
68746;SHT31;66104;45.456;11.064;2023-06-14T03:28:18;21.03;60.95
68746;SHT31;66104;45.456;11.064;2023-06-14T03:30:55;21.01;60.77
68746;SHT31;66104;45.456;11.064;2023-06-14T03:33:32;20.95;60.64
68746;SHT31;66104;45.456;11.064;2023-06-14T03:36:10;20.84;60.90
68746;SHT31;66104;45.456;11.064;2023-06-14T03:38:47;20.87;61.53
68746;SHT31;66104;45.456;11.064;2023-06-14T03:41:25;20.94;61.19
68746;SHT31;66104;45.456;11.064;2023-06-14T03:44:02;20.97;60.62
68746;SHT31;66104;45.456;11.064;2023-06-14T03:46:40;20.95;60.85
68746;SHT31;66104;45.456;11.064;2023-06-14T03:49:16;21.01;60.91
68746;SHT31;66104;45.456;11.064;2023-06-14T03:51:55;21.09;60.91
68746;SHT31;66104;45.456;11.064;2023-06-14T03:54:33;21.15;60.75
68746;SHT31;66104;45.456;11.064;2023-06-14T03:57:31;21.22;60.74
68746;SHT31;66104;45.456;11.064;2023-06-14T04:00:13;21.26;60.62
68746;SHT31;66104;45.456;11.064;2023-06-14T04:02:54;21.24;60.16
68746;SHT31;66104;45.456;11.064;2023-06-14T04:05:33;21.21;60.35
68746;SHT31;66104;45.456;11.064;2023-06-14T04:08:10;21.20;60.39
68746;SHT31;66104;45.456;11.064;2023-06-14T04:10:48;21.20;60.44
68746;SHT31;66104;45.456;11.064;2023-06-14T04:13:27;21.26;60.63
68746;SHT31;66104;45.456;11.064;2023-06-14T04:16:06;21.32;60.48
68746;SHT31;66104;45.456;11.064;2023-06-14T04:18:44;21.38;60.75
68746;SHT31;66104;45.456;11.064;2023-06-14T04:21:23;21.52;60.85
68746;SHT31;66104;45.456;11.064;2023-06-14T04:24:01;21.62;60.21
68746;SHT31;66104;45.456;11.064;2023-06-14T04:26:48;21.66;59.98
68746;SHT31;66104;45.456;11.064;2023-06-14T04:29:28;21.77;60.10
68746;SHT31;66104;45.456;11.064;2023-06-14T04:32:09;21.86;59.64
68746;SHT31;66104;45.456;11.064;2023-06-14T04:34:47;21.93;59.45
68746;SHT31;66104;45.456;11.064;2023-06-14T04:37:25;21.98;59.13
68746;SHT31;66104;45.456;11.064;2023-06-14T04:40:05;22.00;58.96
68746;SHT31;66104;45.456;11.064;2023-06-14T04:42:48;21.97;59.49
68746;SHT31;66104;45.456;11.064;2023-06-14T04:45:26;21.94;59.35
68746;SHT31;66104;45.456;11.064;2023-06-14T04:48:03;21.94;59.91
68746;SHT31;66104;45.456;11.064;2023-06-14T04:50:40;22.07;59.62
68746;SHT31;66104;45.456;11.064;2023-06-14T04:53:22;22.20;59.69
68746;SHT31;66104;45.456;11.064;2023-06-14T04:56:00;22.35;59.68
68746;SHT31;66104;45.456;11.064;2023-06-14T04:58:37;22.44;59.40
68746;SHT31;66104;45.456;11.064;2023-06-14T05:01:15;22.51;59.20
68746;SHT31;66104;45.456;11.064;2023-06-14T05:03:51;22.59;58.96
68746;SHT31;66104;45.456;11.064;2023-06-14T05:06:28;22.64;58.72
68746;SHT31;66104;45.456;11.064;2023-06-14T05:09:05;22.69;58.71
68746;SHT31;66104;45.456;11.064;2023-06-14T05:11:41;22.77;58.66
68746;SHT31;66104;45.456;11.064;2023-06-14T05:14:19;22.86;58.59
68746;SHT31;66104;45.456;11.064;2023-06-14T05:16:58;22.97;58.45
68746;SHT31;66104;45.456;11.064;2023-06-14T05:19:35;23.10;58.09
68746;SHT31;66104;45.456;11.064;2023-06-14T05:22:12;23.14;57.98
68746;SHT31;66104;45.456;11.064;2023-06-14T05:24:49;23.08;57.70
68746;SHT31;66104;45.456;11.064;2023-06-14T05:27:30;22.85;58.26
68746;SHT31;66104;45.456;11.064;2023-06-14T05:30:12;22.81;58.58
68746;SHT31;66104;45.456;11.064;2023-06-14T05:32:51;22.91;58.48
68746;SHT31;66104;45.456;11.064;2023-06-14T05:35:27;23.03;58.22
68746;SHT31;66104;45.456;11.064;2023-06-14T05:38:05;23.14;58.10
68746;SHT31;66104;45.456;11.064;2023-06-14T05:40:42;23.23;58.07
68746;SHT31;66104;45.456;11.064;2023-06-14T05:43:19;23.27;58.13
68746;SHT31;66104;45.456;11.064;2023-06-14T05:45:57;23.34;57.99
68746;SHT31;66104;45.456;11.064;2023-06-14T05:48:35;23.40;57.94
68746;SHT31;66104;45.456;11.064;2023-06-14T05:51:13;23.45;57.78
68746;SHT31;66104;45.456;11.064;2023-06-14T05:53:51;23.48;57.73
68746;SHT31;66104;45.456;11.064;2023-06-14T05:56:28;23.53;57.71
68746;SHT31;66104;45.456;11.064;2023-06-14T05:59:06;23.57;57.72
68746;SHT31;66104;45.456;11.064;2023-06-14T06:01:42;23.60;57.82
68746;SHT31;66104;45.456;11.064;2023-06-14T06:04:18;23.62;57.86
68746;SHT31;66104;45.456;11.064;2023-06-14T06:06:56;23.63;57.94
68746;SHT31;66104;45.456;11.064;2023-06-14T06:09:34;23.65;57.89
68746;SHT31;66104;45.456;11.064;2023-06-14T06:12:11;23.64;57.85
68746;SHT31;66104;45.456;11.064;2023-06-14T06:14:48;23.64;58.04
68746;SHT31;66104;45.456;11.064;2023-06-14T06:17:27;23.60;58.38
68746;SHT31;66104;45.456;11.064;2023-06-14T06:23:14;23.47;59.02
68746;SHT31;66104;45.456;11.064;2023-06-14T06:25:51;23.34;59.25
68746;SHT31;66104;45.456;11.064;2023-06-14T06:28:28;23.21;59.19
68746;SHT31;66104;45.456;11.064;2023-06-14T06:31:05;23.07;59.65
68746;SHT31;66104;45.456;11.064;2023-06-14T06:33:46;22.96;60.01
68746;SHT31;66104;45.456;11.064;2023-06-14T06:36:24;22.88;60.65
68746;SHT31;66104;45.456;11.064;2023-06-14T06:39:00;22.83;61.07
68746;SHT31;66104;45.456;11.064;2023-06-14T06:41:39;22.78;60.96
68746;SHT31;66104;45.456;11.064;2023-06-14T06:44:26;22.78;61.12
68746;SHT31;66104;45.456;11.064;2023-06-14T06:47:04;22.83;60.99
68746;SHT31;66104;45.456;11.064;2023-06-14T06:49:44;22.90;60.73
68746;SHT31;66104;45.456;11.064;2023-06-14T06:52:22;22.96;60.61
68746;SHT31;66104;45.456;11.064;2023-06-14T06:55:00;23.00;60.62
68746;SHT31;66104;45.456;11.064;2023-06-14T06:57:40;23.07;60.36
68746;SHT31;66104;45.456;11.064;2023-06-14T07:00:20;23.10;60.27
68746;SHT31;66104;45.456;11.064;2023-06-14T07:02:58;23.14;60.10
68746;SHT31;66104;45.456;11.064;2023-06-14T07:05:37;23.19;60.18
68746;SHT31;66104;45.456;11.064;2023-06-14T07:08:13;23.23;60.23
68746;SHT31;66104;45.456;11.064;2023-06-14T07:10:50;23.28;60.14
68746;SHT31;66104;45.456;11.064;2023-06-14T07:13:27;23.33;59.92
68746;SHT31;66104;45.456;11.064;2023-06-14T07:16:05;23.40;59.60
68746;SHT31;66104;45.456;11.064;2023-06-14T07:18:42;23.49;59.30
68746;SHT31;66104;45.456;11.064;2023-06-14T07:21:19;23.54;59.12
68746;SHT31;66104;45.456;11.064;2023-06-14T07:23:56;23.60;58.96
68746;SHT31;66104;45.456;11.064;2023-06-14T07:26:37;23.67;58.76
68746;SHT31;66104;45.456;11.064;2023-06-14T07:29:14;23.77;58.54
68746;SHT31;66104;45.456;11.064;2023-06-14T07:31:51;23.84;58.42
68746;SHT31;66104;45.456;11.064;2023-06-14T07:34:28;23.93;58.36
68746;SHT31;66104;45.456;11.064;2023-06-14T07:37:05;23.98;58.25
68746;SHT31;66104;45.456;11.064;2023-06-14T07:39:43;24.03;57.99
68746;SHT31;66104;45.456;11.064;2023-06-14T07:42:20;24.10;57.85
68746;SHT31;66104;45.456;11.064;2023-06-14T07:44:57;24.15;58.04
68746;SHT31;66104;45.456;11.064;2023-06-14T07:47:35;24.19;57.91
68746;SHT31;66104;45.456;11.064;2023-06-14T07:50:13;24.23;58.08
68746;SHT31;66104;45.456;11.064;2023-06-14T07:52:51;24.26;57.79
68746;SHT31;66104;45.456;11.064;2023-06-14T07:55:28;24.31;57.61
68746;SHT31;66104;45.456;11.064;2023-06-14T07:58:21;24.36;57.63
68746;SHT31;66104;45.456;11.064;2023-06-14T08:01:00;24.41;57.46
68746;SHT31;66104;45.456;11.064;2023-06-14T08:03:36;24.45;57.33
68746;SHT31;66104;45.456;11.064;2023-06-14T08:06:15;24.47;57.11
68746;SHT31;66104;45.456;11.064;2023-06-14T08:08:53;24.48;57.17
68746;SHT31;66104;45.456;11.064;2023-06-14T08:11:30;24.47;55.85
68746;SHT31;66104;45.456;11.064;2023-06-14T08:14:07;24.35;54.99
68746;SHT31;66104;45.456;11.064;2023-06-14T08:16:46;24.34;55.89
68746;SHT31;66104;45.456;11.064;2023-06-14T08:19:23;24.41;55.97
68746;SHT31;66104;45.456;11.064;2023-06-14T08:22:00;24.48;55.72
68746;SHT31;66104;45.456;11.064;2023-06-14T08:24:44;24.52;55.21
68746;SHT31;66104;45.456;11.064;2023-06-14T08:27:22;24.57;55.23
68746;SHT31;66104;45.456;11.064;2023-06-14T08:29:59;24.63;54.78
68746;SHT31;66104;45.456;11.064;2023-06-14T08:32:41;24.63;53.45
68746;SHT31;66104;45.456;11.064;2023-06-14T08:35:30;24.56;53.17
68746;SHT31;66104;45.456;11.064;2023-06-14T08:38:09;24.55;53.79
68746;SHT31;66104;45.456;11.064;2023-06-14T08:40:50;24.58;53.04
68746;SHT31;66104;45.456;11.064;2023-06-14T08:43:32;24.52;52.44
68746;SHT31;66104;45.456;11.064;2023-06-14T08:46:13;24.50;53.50
68746;SHT31;66104;45.456;11.064;2023-06-14T08:48:53;24.56;53.38
68746;SHT31;66104;45.456;11.064;2023-06-14T08:51:33;24.58;53.47
68746;SHT31;66104;45.456;11.064;2023-06-14T08:54:13;24.64;53.60
68746;SHT31;66104;45.456;11.064;2023-06-14T08:56:52;24.71;53.38
68746;SHT31;66104;45.456;11.064;2023-06-14T08:59:30;24.76;53.32
68746;SHT31;66104;45.456;11.064;2023-06-14T09:02:08;24.78;53.44
68746;SHT31;66104;45.456;11.064;2023-06-14T09:04:47;24.84;53.35
68746;SHT31;66104;45.456;11.064;2023-06-14T09:07:29;24.87;53.45
68746;SHT31;66104;45.456;11.064;2023-06-14T09:10:07;24.88;53.47
68746;SHT31;66104;45.456;11.064;2023-06-14T09:12:48;24.90;53.58
68746;SHT31;66104;45.456;11.064;2023-06-14T09:15:27;24.90;53.69
68746;SHT31;66104;45.456;11.064;2023-06-14T09:18:05;24.93;53.64
68746;SHT31;66104;45.456;11.064;2023-06-14T09:20:43;24.97;53.59
68746;SHT31;66104;45.456;11.064;2023-06-14T09:23:21;24.98;53.49
68746;SHT31;66104;45.456;11.064;2023-06-14T09:25:58;25.00;53.59
68746;SHT31;66104;45.456;11.064;2023-06-14T09:28:37;25.03;53.69
68746;SHT31;66104;45.456;11.064;2023-06-14T09:31:20;25.06;53.80
68746;SHT31;66104;45.456;11.064;2023-06-14T09:34:01;25.05;53.98
68746;SHT31;66104;45.456;11.064;2023-06-14T09:36:41;25.02;54.06
68746;SHT31;66104;45.456;11.064;2023-06-14T09:39:20;25.02;54.05
68746;SHT31;66104;45.456;11.064;2023-06-14T09:42:01;25.01;53.98
68746;SHT31;66104;45.456;11.064;2023-06-14T09:44:50;24.98;53.47
68746;SHT31;66104;45.456;11.064;2023-06-14T09:47:28;24.94;53.46
68746;SHT31;66104;45.456;11.064;2023-06-14T09:50:10;24.91;53.47
68746;SHT31;66104;45.456;11.064;2023-06-14T09:52:50;24.86;53.49
68746;SHT31;66104;45.456;11.064;2023-06-14T09:55:36;24.85;53.27
68746;SHT31;66104;45.456;11.064;2023-06-14T09:58:14;24.83;52.85
68746;SHT31;66104;45.456;11.064;2023-06-14T10:00:56;24.81;52.90
68746;SHT31;66104;45.456;11.064;2023-06-14T10:03:34;24.85;53.07
68746;SHT31;66104;45.456;11.064;2023-06-14T10:06:18;24.82;52.19
68746;SHT31;66104;45.456;11.064;2023-06-14T10:08:56;24.76;50.84
68746;SHT31;66104;45.456;11.064;2023-06-14T10:11:34;24.73;50.93
68746;SHT31;66104;45.456;11.064;2023-06-14T10:14:13;24.73;51.54
68746;SHT31;66104;45.456;11.064;2023-06-14T10:16:52;24.77;50.73
68746;SHT31;66104;45.456;11.064;2023-06-14T10:19:42;24.75;50.75
68746;SHT31;66104;45.456;11.064;2023-06-14T10:22:29;24.79;51.28
68746;SHT31;66104;45.456;11.064;2023-06-14T10:25:16;24.86;51.02
68746;SHT31;66104;45.456;11.064;2023-06-14T10:31:05;24.99;51.07
68746;SHT31;66104;45.456;11.064;2023-06-14T10:33:50;25.03;50.45
68746;SHT31;66104;45.456;11.064;2023-06-14T10:36:32;25.06;51.00
68746;SHT31;66104;45.456;11.064;2023-06-14T10:39:17;25.13;50.96
68746;SHT31;66104;45.456;11.064;2023-06-14T10:41:57;25.19;49.99
68746;SHT31;66104;45.456;11.064;2023-06-14T10:44:45;25.22;50.12
68746;SHT31;66104;45.456;11.064;2023-06-14T10:47:29;25.25;50.02
68746;SHT31;66104;45.456;11.064;2023-06-14T10:50:10;25.28;50.76
68746;SHT31;66104;45.456;11.064;2023-06-14T10:52:49;25.35;50.67
68746;SHT31;66104;45.456;11.064;2023-06-14T10:55:27;25.42;50.69
68746;SHT31;66104;45.456;11.064;2023-06-14T10:58:15;25.46;50.24
68746;SHT31;66104;45.456;11.064;2023-06-14T11:00:55;25.50;49.68
68746;SHT31;66104;45.456;11.064;2023-06-14T11:03:51;25.53;49.01
68746;SHT31;66104;45.456;11.064;2023-06-14T11:06:45;25.47;48.61
68746;SHT31;66104;45.456;11.064;2023-06-14T11:12:33;25.50;48.92
68746;SHT31;66104;45.456;11.064;2023-06-14T11:15:17;25.57;48.68
68746;SHT31;66104;45.456;11.064;2023-06-14T11:17:59;25.64;48.60
68746;SHT31;66104;45.456;11.064;2023-06-14T11:20:39;25.69;48.49
68746;SHT31;66104;45.456;11.064;2023-06-14T11:23:18;25.72;48.38
68746;SHT31;66104;45.456;11.064;2023-06-14T11:25:55;25.77;48.31
68746;SHT31;66104;45.456;11.064;2023-06-14T11:31:29;25.88;47.02
68746;SHT31;66104;45.456;11.064;2023-06-14T11:34:05;25.92;46.30
68746;SHT31;66104;45.456;11.064;2023-06-14T11:36:46;25.97;46.36
68746;SHT31;66104;45.456;11.064;2023-06-14T11:39:25;25.97;45.50
68746;SHT31;66104;45.456;11.064;2023-06-14T11:42:03;25.88;45.27
68746;SHT31;66104;45.456;11.064;2023-06-14T11:44:47;25.87;45.88
68746;SHT31;66104;45.456;11.064;2023-06-14T11:47:37;25.91;45.57
68746;SHT31;66104;45.456;11.064;2023-06-14T11:50:16;25.91;45.47
68746;SHT31;66104;45.456;11.064;2023-06-14T11:52:55;25.94;45.05
68746;SHT31;66104;45.456;11.064;2023-06-14T11:55:37;26.09;45.88
68746;SHT31;66104;45.456;11.064;2023-06-14T11:58:16;26.28;45.42
68746;SHT31;66104;45.456;11.064;2023-06-14T12:00:56;26.40;44.59
68746;SHT31;66104;45.456;11.064;2023-06-14T12:03:34;26.50;45.33
68746;SHT31;66104;45.456;11.064;2023-06-14T12:06:27;26.49;44.62
68746;SHT31;66104;45.456;11.064;2023-06-14T12:09:06;26.42;45.13
68746;SHT31;66104;45.456;11.064;2023-06-14T12:11:47;26.42;45.55
68746;SHT31;66104;45.456;11.064;2023-06-14T12:14:32;26.42;45.52
68746;SHT31;66104;45.456;11.064;2023-06-14T12:17:16;26.44;45.38
68746;SHT31;66104;45.456;11.064;2023-06-14T12:19:53;26.49;45.76
68746;SHT31;66104;45.456;11.064;2023-06-14T12:22:31;26.51;45.44
68746;SHT31;66104;45.456;11.064;2023-06-14T12:25:10;26.56;45.79
68746;SHT31;66104;45.456;11.064;2023-06-14T12:28:05;26.69;45.78
68746;SHT31;66104;45.456;11.064;2023-06-14T12:30:44;26.75;45.26
68746;SHT31;66104;45.456;11.064;2023-06-14T12:33:23;26.81;45.17
68746;SHT31;66104;45.456;11.064;2023-06-14T12:36:05;26.86;45.04
68746;SHT31;66104;45.456;11.064;2023-06-14T12:38:45;26.89;45.19
68746;SHT31;66104;45.456;11.064;2023-06-14T12:41:23;26.98;45.92
68746;SHT31;66104;45.456;11.064;2023-06-14T12:44:01;27.11;45.71
68746;SHT31;66104;45.456;11.064;2023-06-14T12:46:40;27.16;45.39
68746;SHT31;66104;45.456;11.064;2023-06-14T12:49:20;27.00;43.24
68746;SHT31;66104;45.456;11.064;2023-06-14T12:51:59;26.90;43.55
68746;SHT31;66104;45.456;11.064;2023-06-14T12:54:38;26.88;44.14
68746;SHT31;66104;45.456;11.064;2023-06-14T12:57:16;26.98;44.19
68746;SHT31;66104;45.456;11.064;2023-06-14T12:59:53;27.09;43.85
68746;SHT31;66104;45.456;11.064;2023-06-14T13:02:34;27.13;43.57
68746;SHT31;66104;45.456;11.064;2023-06-14T13:05:12;27.21;43.71
68746;SHT31;66104;45.456;11.064;2023-06-14T13:07:52;27.38;42.91
68746;SHT31;66104;45.456;11.064;2023-06-14T13:10:30;27.52;42.32
68746;SHT31;66104;45.456;11.064;2023-06-14T13:13:07;27.60;41.71
68746;SHT31;66104;45.456;11.064;2023-06-14T13:15:45;27.65;41.20
68746;SHT31;66104;45.456;11.064;2023-06-14T13:18:23;27.63;41.64
68746;SHT31;66104;45.456;11.064;2023-06-14T13:21:01;27.63;41.07
68746;SHT31;66104;45.456;11.064;2023-06-14T13:23:39;27.66;41.67
68746;SHT31;66104;45.456;11.064;2023-06-14T13:26:18;27.70;41.20
68746;SHT31;66104;45.456;11.064;2023-06-14T13:28:56;27.70;40.94
68746;SHT31;66104;45.456;11.064;2023-06-14T13:31:35;27.72;40.53
68746;SHT31;66104;45.456;11.064;2023-06-14T13:34:14;27.71;40.36
68746;SHT31;66104;45.456;11.064;2023-06-14T13:36:51;27.70;41.11
68746;SHT31;66104;45.456;11.064;2023-06-14T13:39:30;27.70;41.10
68746;SHT31;66104;45.456;11.064;2023-06-14T13:42:08;27.70;40.67
68746;SHT31;66104;45.456;11.064;2023-06-14T13:44:46;27.63;39.73
68746;SHT31;66104;45.456;11.064;2023-06-14T13:47:23;27.59;39.23
68746;SHT31;66104;45.456;11.064;2023-06-14T13:50:02;27.59;38.56
68746;SHT31;66104;45.456;11.064;2023-06-14T13:52:44;27.60;37.49
68746;SHT31;66104;45.456;11.064;2023-06-14T13:55:22;27.60;37.42
68746;SHT31;66104;45.456;11.064;2023-06-14T13:58:00;27.70;38.11
68746;SHT31;66104;45.456;11.064;2023-06-14T14:00:37;27.84;38.23
68746;SHT31;66104;45.456;11.064;2023-06-14T14:03:16;27.92;38.10
68746;SHT31;66104;45.456;11.064;2023-06-14T14:05:55;27.96;38.27
68746;SHT31;66104;45.456;11.064;2023-06-14T14:08:34;27.91;37.68
68746;SHT31;66104;45.456;11.064;2023-06-14T14:11:11;27.81;37.43
68746;SHT31;66104;45.456;11.064;2023-06-14T14:13:50;27.83;36.37
68746;SHT31;66104;45.456;11.064;2023-06-14T14:16:27;27.89;36.31
68746;SHT31;66104;45.456;11.064;2023-06-14T14:19:05;27.97;36.33
68746;SHT31;66104;45.456;11.064;2023-06-14T14:21:43;28.05;35.70
68746;SHT31;66104;45.456;11.064;2023-06-14T14:24:23;28.13;35.22
68746;SHT31;66104;45.456;11.064;2023-06-14T14:27:01;28.23;35.91
68746;SHT31;66104;45.456;11.064;2023-06-14T14:29:41;28.27;36.65
68746;SHT31;66104;45.456;11.064;2023-06-14T14:32:18;28.25;36.94
68746;SHT31;66104;45.456;11.064;2023-06-14T14:34:55;28.17;37.35
68746;SHT31;66104;45.456;11.064;2023-06-14T14:37:33;28.14;37.64
68746;SHT31;66104;45.456;11.064;2023-06-14T14:40:12;28.14;37.39
68746;SHT31;66104;45.456;11.064;2023-06-14T14:42:50;28.12;37.41
68746;SHT31;66104;45.456;11.064;2023-06-14T14:45:29;28.07;38.35
68746;SHT31;66104;45.456;11.064;2023-06-14T14:48:07;28.07;38.53
68746;SHT31;66104;45.456;11.064;2023-06-14T14:50:46;28.01;39.25
68746;SHT31;66104;45.456;11.064;2023-06-14T14:53:27;28.02;38.08
68746;SHT31;66104;45.456;11.064;2023-06-14T14:56:05;28.03;36.62
68746;SHT31;66104;45.456;11.064;2023-06-14T14:58:45;28.07;36.12
68746;SHT31;66104;45.456;11.064;2023-06-14T15:01:24;28.13;36.64
68746;SHT31;66104;45.456;11.064;2023-06-14T15:04:03;28.19;37.06
68746;SHT31;66104;45.456;11.064;2023-06-14T15:06:43;28.25;36.74
68746;SHT31;66104;45.456;11.064;2023-06-14T15:09:24;28.28;36.52
68746;SHT31;66104;45.456;11.064;2023-06-14T15:12:07;28.29;36.27
68746;SHT31;66104;45.456;11.064;2023-06-14T15:14:49;28.24;37.16
68746;SHT31;66104;45.456;11.064;2023-06-14T15:17:28;28.20;37.22
68746;SHT31;66104;45.456;11.064;2023-06-14T15:20:10;28.15;37.59
68746;SHT31;66104;45.456;11.064;2023-06-14T15:22:50;28.11;37.63
68746;SHT31;66104;45.456;11.064;2023-06-14T15:25:31;28.12;37.65
68746;SHT31;66104;45.456;11.064;2023-06-14T15:28:12;28.07;38.53
68746;SHT31;66104;45.456;11.064;2023-06-14T15:30:54;28.01;38.48
68746;SHT31;66104;45.456;11.064;2023-06-14T15:33:33;27.97;39.03
68746;SHT31;66104;45.456;11.064;2023-06-14T15:36:11;28.04;39.02
68746;SHT31;66104;45.456;11.064;2023-06-14T15:38:51;28.08;39.27
68746;SHT31;66104;45.456;11.064;2023-06-14T15:41:29;28.06;39.32
68746;SHT31;66104;45.456;11.064;2023-06-14T15:44:08;27.98;39.69
68746;SHT31;66104;45.456;11.064;2023-06-14T15:46:49;27.95;39.75
68746;SHT31;66104;45.456;11.064;2023-06-14T15:49:27;27.96;39.64
68746;SHT31;66104;45.456;11.064;2023-06-14T15:52:07;27.96;39.60
68746;SHT31;66104;45.456;11.064;2023-06-14T15:54:49;27.97;40.12
68746;SHT31;66104;45.456;11.064;2023-06-14T15:57:28;28.04;40.14
68746;SHT31;66104;45.456;11.064;2023-06-14T16:00:12;28.06;39.70
68746;SHT31;66104;45.456;11.064;2023-06-14T16:02:56;28.08;39.78
68746;SHT31;66104;45.456;11.064;2023-06-14T16:05:35;28.09;40.13
68746;SHT31;66104;45.456;11.064;2023-06-14T16:08:14;28.03;40.17
68746;SHT31;66104;45.456;11.064;2023-06-14T16:11:12;27.92;40.10
68746;SHT31;66104;45.456;11.064;2023-06-14T16:13:52;27.85;40.44
68746;SHT31;66104;45.456;11.064;2023-06-14T16:16:30;27.78;40.10
68746;SHT31;66104;45.456;11.064;2023-06-14T16:19:09;27.79;40.21
68746;SHT31;66104;45.456;11.064;2023-06-14T16:21:48;27.88;40.60
68746;SHT31;66104;45.456;11.064;2023-06-14T16:24:29;27.92;40.89
68746;SHT31;66104;45.456;11.064;2023-06-14T16:27:10;27.91;40.92
68746;SHT31;66104;45.456;11.064;2023-06-14T16:29:49;27.80;41.51
68746;SHT31;66104;45.456;11.064;2023-06-14T16:32:29;27.70;41.66
68746;SHT31;66104;45.456;11.064;2023-06-14T16:35:10;27.60;41.63
68746;SHT31;66104;45.456;11.064;2023-06-14T16:37:49;27.52;41.37
68746;SHT31;66104;45.456;11.064;2023-06-14T16:40:29;27.46;41.49
68746;SHT31;66104;45.456;11.064;2023-06-14T16:43:08;27.39;42.18
68746;SHT31;66104;45.456;11.064;2023-06-14T16:45:46;27.26;43.16